sensor_id;sensor_type;location;lat;lon;timestamp;pressure;altitude;pressure_sealevel;temperature;humidity
86330;BME280;76985;51.042;13.978;2024-03-23T00:53:58;98214.72;;;6.81;88.17
86330;BME280;76985;51.042;13.978;2024-03-23T00:56:24;98222.38;;;6.82;88.58
86330;BME280;76985;51.042;13.978;2024-03-23T00:58:50;98223.06;;;6.71;87.75
86330;BME280;76985;51.042;13.978;2024-03-23T01:01:17;98185.88;;;6.37;87.23
86330;BME280;76985;51.042;13.978;2024-03-23T01:03:43;98204.81;;;6.39;88.67
86330;BME280;76985;51.042;13.978;2024-03-23T01:06:09;98203.81;;;6.34;88.47
86330;BME280;76985;51.042;13.978;2024-03-23T01:08:35;98208.78;;;6.17;88.03
86330;BME280;76985;51.042;13.978;2024-03-23T01:11:01;98231.53;;;6.23;87.55
86330;BME280;76985;51.042;13.978;2024-03-23T01:13:31;98213.72;;;6.00;88.28
86330;BME280;76985;51.042;13.978;2024-03-23T01:15:57;98179.59;;;5.82;89.25
86330;BME280;76985;51.042;13.978;2024-03-23T01:18:24;98193.88;;;5.79;87.89
86330;BME280;76985;51.042;13.978;2024-03-23T01:20:52;98221.19;;;5.96;87.93
86330;BME280;76985;51.042;13.978;2024-03-23T01:23:18;98213.00;;;5.80;88.40
86330;BME280;76985;51.042;13.978;2024-03-23T01:25:51;98195.78;;;5.65;87.69
86330;BME280;76985;51.042;13.978;2024-03-23T01:28:18;98199.78;;;5.68;88.73
86330;BME280;76985;51.042;13.978;2024-03-23T01:30:44;98188.09;;;5.70;90.00
86330;BME280;76985;51.042;13.978;2024-03-23T01:33:10;98211.38;;;5.85;88.68
86330;BME280;76985;51.042;13.978;2024-03-23T01:35:36;98184.94;;;5.62;89.11
86330;BME280;76985;51.042;13.978;2024-03-23T01:38:03;98121.00;;;5.13;89.29
86330;BME280;76985;51.042;13.978;2024-03-23T01:40:29;98182.94;;;5.57;89.60
86330;BME280;76985;51.042;13.978;2024-03-23T01:43:01;98171.94;;;5.48;88.58
86330;BME280;76985;51.042;13.978;2024-03-23T01:45:30;98135.81;;;5.26;88.40
86330;BME280;76985;51.042;13.978;2024-03-23T01:47:59;98154.03;;;5.45;88.30
86330;BME280;76985;51.042;13.978;2024-03-23T01:50:26;98155.13;;;5.31;89.69
86330;BME280;76985;51.042;13.978;2024-03-23T01:52:53;98174.53;;;5.48;88.19
86330;BME280;76985;51.042;13.978;2024-03-23T01:55:20;98155.34;;;5.23;88.27
86330;BME280;76985;51.042;13.978;2024-03-23T01:57:46;98141.31;;;5.11;89.07
86330;BME280;76985;51.042;13.978;2024-03-23T02:00:13;98155.53;;;5.21;89.26
86330;BME280;76985;51.042;13.978;2024-03-23T02:02:46;98154.78;;;5.08;89.53
86330;BME280;76985;51.042;13.978;2024-03-23T02:05:13;98148.97;;;5.06;89.75
86330;BME280;76985;51.042;13.978;2024-03-23T02:07:40;98114.84;;;4.87;90.21
86330;BME280;76985;51.042;13.978;2024-03-23T02:10:07;98151.94;;;5.16;89.13
86330;BME280;76985;51.042;13.978;2024-03-23T02:12:36;98134.28;;;5.05;89.00
86330;BME280;76985;51.042;13.978;2024-03-23T02:15:03;98152.13;;;5.21;88.31
86330;BME280;76985;51.042;13.978;2024-03-23T02:17:30;98139.22;;;4.81;88.74
86330;BME280;76985;51.042;13.978;2024-03-23T02:19:57;98149.28;;;4.71;88.73
86330;BME280;76985;51.042;13.978;2024-03-23T02:22:23;98107.72;;;4.49;88.11
86330;BME280;76985;51.042;13.978;2024-03-23T02:24:49;98139.66;;;4.65;89.87
86330;BME280;76985;51.042;13.978;2024-03-23T02:27:15;98112.13;;;4.62;88.93
86330;BME280;76985;51.042;13.978;2024-03-23T02:29:41;98136.00;;;4.79;88.66
86330;BME280;76985;51.042;13.978;2024-03-23T02:32:07;98126.19;;;4.61;89.22
86330;BME280;76985;51.042;13.978;2024-03-23T02:34:35;98108.75;;;4.48;89.52
86330;BME280;76985;51.042;13.978;2024-03-23T02:37:02;98112.34;;;4.54;91.46
86330;BME280;76985;51.042;13.978;2024-03-23T02:39:28;98106.88;;;4.69;90.81
86330;BME280;76985;51.042;13.978;2024-03-23T02:41:54;98106.47;;;4.72;89.50
86330;BME280;76985;51.042;13.978;2024-03-23T02:44:20;98079.41;;;4.53;88.21
86330;BME280;76985;51.042;13.978;2024-03-23T02:46:46;98100.44;;;4.71;91.95
86330;BME280;76985;51.042;13.978;2024-03-23T02:49:13;98081.97;;;4.66;92.56
86330;BME280;76985;51.042;13.978;2024-03-23T02:51:40;98098.94;;;5.02;92.70
86330;BME280;76985;51.042;13.978;2024-03-23T02:54:07;98088.03;;;5.12;92.34
86330;BME280;76985;51.042;13.978;2024-03-23T02:56:34;98090.84;;;5.10;91.50
86330;BME280;76985;51.042;13.978;2024-03-23T02:59:01;98106.84;;;5.27;92.18
86330;BME280;76985;51.042;13.978;2024-03-23T03:01:27;98087.63;;;5.08;92.24
86330;BME280;76985;51.042;13.978;2024-03-23T03:03:53;98083.00;;;5.10;91.98
86330;BME280;76985;51.042;13.978;2024-03-23T03:06:23;98076.69;;;5.24;91.81
86330;BME280;76985;51.042;13.978;2024-03-23T03:08:51;98108.53;;;5.46;90.20
86330;BME280;76985;51.042;13.978;2024-03-23T03:11:17;98107.66;;;5.59;91.42
86330;BME280;76985;51.042;13.978;2024-03-23T03:13:43;98043.72;;;5.23;90.76
86330;BME280;76985;51.042;13.978;2024-03-23T03:16:10;98094.97;;;5.63;91.07
86330;BME280;76985;51.042;13.978;2024-03-23T03:18:38;98103.72;;;5.75;91.85
86330;BME280;76985;51.042;13.978;2024-03-23T03:21:06;98091.97;;;5.84;91.43
86330;BME280;76985;51.042;13.978;2024-03-23T03:23:37;98091.56;;;5.87;91.95
86330;BME280;76985;51.042;13.978;2024-03-23T03:26:07;98073.72;;;5.78;91.88
86330;BME280;76985;51.042;13.978;2024-03-23T03:28:33;98055.94;;;5.61;90.70
86330;BME280;76985;51.042;13.978;2024-03-23T03:31:01;98043.38;;;5.45;91.33
86330;BME280;76985;51.042;13.978;2024-03-23T03:33:27;98043.22;;;5.40;92.47
86330;BME280;76985;51.042;13.978;2024-03-23T03:35:54;98036.94;;;5.47;92.50
86330;BME280;76985;51.042;13.978;2024-03-23T03:38:21;98041.28;;;5.54;91.76
86330;BME280;76985;51.042;13.978;2024-03-23T03:40:47;98028.25;;;5.47;91.20
86330;BME280;76985;51.042;13.978;2024-03-23T03:43:13;98014.91;;;5.55;91.18
86330;BME280;76985;51.042;13.978;2024-03-23T03:45:39;97988.94;;;5.35;89.20
86330;BME280;76985;51.042;13.978;2024-03-23T03:48:06;98048.25;;;5.66;91.83
86330;BME280;76985;51.042;13.978;2024-03-23T03:50:32;98023.63;;;5.49;91.66
86330;BME280;76985;51.042;13.978;2024-03-23T03:52:58;98043.97;;;5.72;90.02
86330;BME280;76985;51.042;13.978;2024-03-23T03:55:24;98051.88;;;5.90;91.60
86330;BME280;76985;51.042;13.978;2024-03-23T03:57:50;97962.22;;;5.27;91.64
86330;BME280;76985;51.042;13.978;2024-03-23T04:00:16;98035.13;;;5.73;92.64
86330;BME280;76985;51.042;13.978;2024-03-23T04:02:43;98034.41;;;5.59;92.74
86330;BME280;76985;51.042;13.978;2024-03-23T04:05:09;97958.97;;;5.06;93.29
86330;BME280;76985;51.042;13.978;2024-03-23T04:07:35;98017.59;;;5.48;93.13
86330;BME280;76985;51.042;13.978;2024-03-23T04:10:01;98011.88;;;5.58;93.21
86330;BME280;76985;51.042;13.978;2024-03-23T04:12:27;98017.88;;;5.65;91.49
86330;BME280;76985;51.042;13.978;2024-03-23T04:14:53;97963.63;;;5.29;93.09
86330;BME280;76985;51.042;13.978;2024-03-23T04:17:19;98019.16;;;5.56;92.60
86330;BME280;76985;51.042;13.978;2024-03-23T04:19:46;97997.88;;;5.46;91.29
86330;BME280;76985;51.042;13.978;2024-03-23T04:22:12;97971.72;;;5.21;90.45
86330;BME280;76985;51.042;13.978;2024-03-23T04:24:38;98008.44;;;5.33;89.52
86330;BME280;76985;51.042;13.978;2024-03-23T04:27:04;97929.19;;;4.76;89.00
86330;BME280;76985;51.042;13.978;2024-03-23T04:29:30;98005.78;;;5.08;89.06
86330;BME280;76985;51.042;13.978;2024-03-23T04:31:56;97958.56;;;4.71;91.04
86330;BME280;76985;51.042;13.978;2024-03-23T04:34:22;97884.34;;;4.09;88.22
86330;BME280;76985;51.042;13.978;2024-03-23T04:36:49;97983.50;;;4.67;89.72
86330;BME280;76985;51.042;13.978;2024-03-23T04:39:15;97994.09;;;4.79;89.64
86330;BME280;76985;51.042;13.978;2024-03-23T04:41:41;97990.75;;;4.65;89.42
86330;BME280;76985;51.042;13.978;2024-03-23T04:44:07;97970.81;;;4.70;88.49
86330;BME280;76985;51.042;13.978;2024-03-23T04:46:33;97960.88;;;4.47;88.76
86330;BME280;76985;51.042;13.978;2024-03-23T04:48:59;97968.94;;;4.46;89.93
86330;BME280;76985;51.042;13.978;2024-03-23T04:51:25;97971.38;;;4.34;90.23
86330;BME280;76985;51.042;13.978;2024-03-23T04:53:52;97968.38;;;4.31;89.74
86330;BME280;76985;51.042;13.978;2024-03-23T04:56:18;97955.78;;;4.14;90.58
86330;BME280;76985;51.042;13.978;2024-03-23T04:58:45;97935.63;;;3.63;91.22
86330;BME280;76985;51.042;13.978;2024-03-23T05:01:12;97943.06;;;3.66;92.39
86330;BME280;76985;51.042;13.978;2024-03-23T05:03:38;97940.41;;;3.73;92.07
86330;BME280;76985;51.042;13.978;2024-03-23T05:06:04;97926.19;;;3.76;90.46
86330;BME280;76985;51.042;13.978;2024-03-23T05:08:31;97891.75;;;3.34;90.92
86330;BME280;76985;51.042;13.978;2024-03-23T05:10:57;97835.25;;;3.08;92.63
86330;BME280;76985;51.042;13.978;2024-03-23T05:13:24;97890.72;;;3.55;92.05
86330;BME280;76985;51.042;13.978;2024-03-23T05:15:54;97881.66;;;3.64;91.19
86330;BME280;76985;51.042;13.978;2024-03-23T05:18:21;97886.25;;;3.68;91.79
86330;BME280;76985;51.042;13.978;2024-03-23T05:20:47;97881.50;;;3.39;92.46
86330;BME280;76985;51.042;13.978;2024-03-23T05:23:13;97852.22;;;3.43;91.22
86330;BME280;76985;51.042;13.978;2024-03-23T05:25:41;97866.41;;;3.67;91.23
86330;BME280;76985;51.042;13.978;2024-03-23T05:28:07;97849.78;;;3.62;89.32
86330;BME280;76985;51.042;13.978;2024-03-23T05:30:33;97862.56;;;3.77;91.00
86330;BME280;76985;51.042;13.978;2024-03-23T05:32:59;97864.78;;;3.80;90.52
86330;BME280;76985;51.042;13.978;2024-03-23T05:35:25;97820.88;;;3.63;91.62
86330;BME280;76985;51.042;13.978;2024-03-23T05:37:51;97808.06;;;3.62;91.88
86330;BME280;76985;51.042;13.978;2024-03-23T05:40:18;97830.22;;;3.91;88.85
86330;BME280;76985;51.042;13.978;2024-03-23T05:42:44;97844.13;;;4.23;92.35
86330;BME280;76985;51.042;13.978;2024-03-23T05:45:10;97828.19;;;4.31;90.98
86330;BME280;76985;51.042;13.978;2024-03-23T05:47:37;97779.44;;;4.25;91.70
86330;BME280;76985;51.042;13.978;2024-03-23T05:50:04;97838.34;;;4.78;92.31
86330;BME280;76985;51.042;13.978;2024-03-23T05:52:30;97767.06;;;4.45;91.66
86330;BME280;76985;51.042;13.978;2024-03-23T05:54:56;97805.56;;;4.82;92.60
86330;BME280;76985;51.042;13.978;2024-03-23T05:57:22;97837.34;;;5.04;92.32
86330;BME280;76985;51.042;13.978;2024-03-23T05:59:48;97790.59;;;4.89;90.40
86330;BME280;76985;51.042;13.978;2024-03-23T06:02:14;97808.53;;;5.10;91.40
86330;BME280;76985;51.042;13.978;2024-03-23T06:04:40;97800.75;;;5.22;90.17
86330;BME280;76985;51.042;13.978;2024-03-23T06:07:06;97716.78;;;4.75;91.50
86330;BME280;76985;51.042;13.978;2024-03-23T06:09:33;97817.63;;;5.63;93.73
86330;BME280;76985;51.042;13.978;2024-03-23T06:11:59;97802.44;;;5.71;92.75
86330;BME280;76985;51.042;13.978;2024-03-23T06:14:25;97702.44;;;5.03;92.05
86330;BME280;76985;51.042;13.978;2024-03-23T06:16:51;97783.91;;;5.73;92.64
86330;BME280;76985;51.042;13.978;2024-03-23T06:19:17;97709.97;;;5.29;93.09
86330;BME280;76985;51.042;13.978;2024-03-23T06:21:44;97807.22;;;5.93;92.80
86330;BME280;76985;51.042;13.978;2024-03-23T06:24:12;97784.84;;;5.97;93.41
86330;BME280;76985;51.042;13.978;2024-03-23T06:26:38;97787.38;;;6.04;93.30
86330;BME280;76985;51.042;13.978;2024-03-23T06:29:04;97774.03;;;5.93;93.80
86330;BME280;76985;51.042;13.978;2024-03-23T06:31:32;97751.81;;;5.96;92.98
86330;BME280;76985;51.042;13.978;2024-03-23T06:33:58;97758.13;;;6.07;92.34
86330;BME280;76985;51.042;13.978;2024-03-23T06:36:24;97755.53;;;6.07;91.02
86330;BME280;76985;51.042;13.978;2024-03-23T06:38:50;97759.75;;;6.19;92.27
86330;BME280;76985;51.042;13.978;2024-03-23T06:41:17;97716.81;;;6.09;92.26
86330;BME280;76985;51.042;13.978;2024-03-23T06:43:43;97750.78;;;6.27;90.88
86330;BME280;76985;51.042;13.978;2024-03-23T06:46:09;97726.44;;;6.27;91.10
86330;BME280;76985;51.042;13.978;2024-03-23T06:48:35;97667.19;;;6.02;90.22
86330;BME280;76985;51.042;13.978;2024-03-23T06:51:01;97720.06;;;6.46;90.37
86330;BME280;76985;51.042;13.978;2024-03-23T06:53:27;97715.63;;;6.46;90.72
86330;BME280;76985;51.042;13.978;2024-03-23T06:55:53;97679.88;;;6.40;90.08
86330;BME280;76985;51.042;13.978;2024-03-23T06:58:24;97651.03;;;6.29;89.56
86330;BME280;76985;51.042;13.978;2024-03-23T07:00:50;97699.03;;;6.64;91.52
86330;BME280;76985;51.042;13.978;2024-03-23T07:03:20;97685.69;;;6.66;91.36
86330;BME280;76985;51.042;13.978;2024-03-23T07:05:47;97652.53;;;6.48;92.09
86330;BME280;76985;51.042;13.978;2024-03-23T07:08:13;97681.69;;;6.75;91.85
86330;BME280;76985;51.042;13.978;2024-03-23T07:10:44;97708.78;;;6.92;91.52
86330;BME280;76985;51.042;13.978;2024-03-23T07:13:10;97709.13;;;6.96;91.75
86330;BME280;76985;51.042;13.978;2024-03-23T07:15:36;97681.31;;;6.95;90.82
86330;BME280;76985;51.042;13.978;2024-03-23T07:18:02;97687.69;;;6.99;91.39
86330;BME280;76985;51.042;13.978;2024-03-23T07:20:28;97681.69;;;6.87;91.79
86330;BME280;76985;51.042;13.978;2024-03-23T07:22:56;97689.88;;;6.90;91.59
86330;BME280;76985;51.042;13.978;2024-03-23T07:25:22;97698.63;;;7.08;91.13
86330;BME280;76985;51.042;13.978;2024-03-23T07:27:50;97678.69;;;7.07;91.03
86330;BME280;76985;51.042;13.978;2024-03-23T07:30:16;97622.53;;;6.67;92.71
86330;BME280;76985;51.042;13.978;2024-03-23T07:32:44;97651.88;;;7.05;90.86
86330;BME280;76985;51.042;13.978;2024-03-23T07:35:10;97653.34;;;7.12;92.83
86330;BME280;76985;51.042;13.978;2024-03-23T07:37:37;97653.41;;;7.29;92.88
86330;BME280;76985;51.042;13.978;2024-03-23T07:40:08;97634.13;;;7.35;92.80
86330;BME280;76985;51.042;13.978;2024-03-23T07:42:35;97595.28;;;7.20;90.51
86330;BME280;76985;51.042;13.978;2024-03-23T07:45:01;97624.16;;;7.49;92.10
86330;BME280;76985;51.042;13.978;2024-03-23T07:47:27;97553.84;;;7.06;93.24
86330;BME280;76985;51.042;13.978;2024-03-23T07:49:55;97620.44;;;7.62;93.14
86330;BME280;76985;51.042;13.978;2024-03-23T07:52:21;97622.19;;;7.73;91.94
86330;BME280;76985;51.042;13.978;2024-03-23T07:54:48;97604.16;;;7.77;92.05
86330;BME280;76985;51.042;13.978;2024-03-23T07:57:15;97605.41;;;7.91;92.58
86330;BME280;76985;51.042;13.978;2024-03-23T07:59:41;97603.59;;;7.91;93.35
86330;BME280;76985;51.042;13.978;2024-03-23T08:02:07;97574.09;;;7.84;92.08
86330;BME280;76985;51.042;13.978;2024-03-23T08:04:33;97559.75;;;7.75;91.83
86330;BME280;76985;51.042;13.978;2024-03-23T08:07:00;97564.28;;;8.13;92.77
86330;BME280;76985;51.042;13.978;2024-03-23T08:09:26;97555.41;;;8.36;91.66
86330;BME280;76985;51.042;13.978;2024-03-23T08:11:52;97574.78;;;8.69;92.64
86330;BME280;76985;51.042;13.978;2024-03-23T08:14:18;97540.84;;;8.67;91.17
86330;BME280;76985;51.042;13.978;2024-03-23T08:16:48;97552.41;;;8.88;91.20
86330;BME280;76985;51.042;13.978;2024-03-23T08:19:16;97542.47;;;8.95;90.69
86330;BME280;76985;51.042;13.978;2024-03-23T08:21:45;97532.56;;;9.03;90.89
86330;BME280;76985;51.042;13.978;2024-03-23T08:24:11;97519.00;;;9.16;90.15
86330;BME280;76985;51.042;13.978;2024-03-23T08:26:37;97514.59;;;9.21;88.80
86330;BME280;76985;51.042;13.978;2024-03-23T08:29:04;97434.69;;;8.74;89.32
86330;BME280;76985;51.042;13.978;2024-03-23T08:31:30;97528.25;;;9.45;89.79
86330;BME280;76985;51.042;13.978;2024-03-23T08:33:56;97438.66;;;9.03;90.99
86330;BME280;76985;51.042;13.978;2024-03-23T08:36:25;97509.28;;;9.81;89.67
86330;BME280;76985;51.042;13.978;2024-03-23T08:38:53;97517.22;;;10.28;88.69
86330;BME280;76985;51.042;13.978;2024-03-23T08:41:20;97515.63;;;10.80;87.93
86330;BME280;76985;51.042;13.978;2024-03-23T08:43:48;97431.31;;;10.27;85.83
86330;BME280;76985;51.042;13.978;2024-03-23T08:46:15;97510.63;;;10.88;87.01
86330;BME280;76985;51.042;13.978;2024-03-23T08:48:43;97513.28;;;10.93;86.66
86330;BME280;76985;51.042;13.978;2024-03-23T08:51:10;97427.47;;;10.50;86.99
86330;BME280;76985;51.042;13.978;2024-03-23T08:53:37;97500.09;;;10.88;86.81
86330;BME280;76985;51.042;13.978;2024-03-23T08:56:04;97492.69;;;10.90;84.59
86330;BME280;76985;51.042;13.978;2024-03-23T08:58:33;97482.63;;;10.72;84.68
86330;BME280;76985;51.042;13.978;2024-03-23T09:01:04;97518.84;;;10.97;85.16
86330;BME280;76985;51.042;13.978;2024-03-23T09:03:31;97511.69;;;10.92;83.49
86330;BME280;76985;51.042;13.978;2024-03-23T09:05:57;97517.47;;;10.79;85.09
86330;BME280;76985;51.042;13.978;2024-03-23T09:08:24;97518.50;;;10.73;85.75
86330;BME280;76985;51.042;13.978;2024-03-23T09:10:52;97506.59;;;10.60;87.61
86330;BME280;76985;51.042;13.978;2024-03-23T09:13:18;97514.25;;;10.67;84.29
86330;BME280;76985;51.042;13.978;2024-03-23T09:15:51;97500.53;;;10.65;85.03
86330;BME280;76985;51.042;13.978;2024-03-23T09:18:22;97511.13;;;10.75;85.20
86330;BME280;76985;51.042;13.978;2024-03-23T09:20:48;97494.16;;;10.56;87.26
86330;BME280;76985;51.042;13.978;2024-03-23T09:23:14;97435.00;;;10.26;86.48
86330;BME280;76985;51.042;13.978;2024-03-23T09:25:40;97510.63;;;10.93;85.90
86330;BME280;76985;51.042;13.978;2024-03-23T09:28:07;97520.44;;;11.08;86.55
86330;BME280;76985;51.042;13.978;2024-03-23T09:30:36;97524.16;;;11.07;86.26
86330;BME280;76985;51.042;13.978;2024-03-23T09:33:12;97504.59;;;10.98;86.37
86330;BME280;76985;51.042;13.978;2024-03-23T09:35:42;97519.09;;;11.01;86.16
86330;BME280;76985;51.042;13.978;2024-03-23T09:38:08;97521.19;;;10.99;86.10
86330;BME280;76985;51.042;13.978;2024-03-23T09:40:41;97509.06;;;10.87;86.33
86330;BME280;76985;51.042;13.978;2024-03-23T09:43:11;97511.47;;;11.04;83.76
86330;BME280;76985;51.042;13.978;2024-03-23T09:45:40;97536.06;;;11.35;81.45
86330;BME280;76985;51.042;13.978;2024-03-23T09:48:08;97528.13;;;11.35;82.15
86330;BME280;76985;51.042;13.978;2024-03-23T09:50:39;97505.16;;;11.31;80.74
86330;BME280;76985;51.042;13.978;2024-03-23T09:53:10;97501.44;;;11.11;82.26
86330;BME280;76985;51.042;13.978;2024-03-23T09:55:38;97523.66;;;11.20;82.40
86330;BME280;76985;51.042;13.978;2024-03-23T09:58:05;97501.09;;;10.82;83.43
86330;BME280;76985;51.042;13.978;2024-03-23T10:00:35;97565.75;;;10.85;83.70
86330;BME280;76985;51.042;13.978;2024-03-23T10:03:03;97588.34;;;10.65;84.19
86330;BME280;76985;51.042;13.978;2024-03-23T10:05:30;97567.88;;;10.30;84.10
86330;BME280;76985;51.042;13.978;2024-03-23T10:08:02;97560.91;;;10.19;85.35
86330;BME280;76985;51.042;13.978;2024-03-23T10:10:43;97606.00;;;10.23;87.22
86330;BME280;76985;51.042;13.978;2024-03-23T10:13:10;97553.72;;;9.72;86.53
86330;BME280;76985;51.042;13.978;2024-03-23T10:15:39;97650.56;;;9.92;86.61
86330;BME280;76985;51.042;13.978;2024-03-23T10:18:19;97672.72;;;9.69;87.84
86330;BME280;76985;51.042;13.978;2024-03-23T10:20:52;97661.88;;;9.16;86.81
86330;BME280;76985;51.042;13.978;2024-03-23T10:23:18;97696.28;;;9.10;86.35
86330;BME280;76985;51.042;13.978;2024-03-23T10:25:45;97713.06;;;8.70;85.69
86330;BME280;76985;51.042;13.978;2024-03-23T10:28:11;97721.97;;;8.35;87.35
86330;BME280;76985;51.042;13.978;2024-03-23T10:30:38;97747.81;;;8.10;86.73
86330;BME280;76985;51.042;13.978;2024-03-23T10:33:08;97766.47;;;7.80;85.42
86330;BME280;76985;51.042;13.978;2024-03-23T10:35:34;97806.34;;;7.41;85.36
86330;BME280;76985;51.042;13.978;2024-03-23T10:38:05;97792.78;;;6.74;85.73
86330;BME280;76985;51.042;13.978;2024-03-23T10:40:36;97827.44;;;6.76;84.45
86330;BME280;76985;51.042;13.978;2024-03-23T10:43:06;97833.66;;;6.52;86.50
86330;BME280;76985;51.042;13.978;2024-03-23T10:45:34;97871.75;;;6.66;86.83
86330;BME280;76985;51.042;13.978;2024-03-23T10:48:01;97875.09;;;6.55;86.47
86330;BME280;76985;51.042;13.978;2024-03-23T10:50:28;97846.06;;;5.96;86.12
86330;BME280;76985;51.042;13.978;2024-03-23T10:52:54;97909.09;;;6.13;85.82
86330;BME280;76985;51.042;13.978;2024-03-23T10:55:25;97930.50;;;6.10;86.35
86330;BME280;76985;51.042;13.978;2024-03-23T10:57:54;97951.00;;;5.94;85.66
86330;BME280;76985;51.042;13.978;2024-03-23T11:00:20;97957.72;;;5.84;87.53
86330;BME280;76985;51.042;13.978;2024-03-23T11:02:49;97956.16;;;5.76;86.89
86330;BME280;76985;51.042;13.978;2024-03-23T11:05:48;97945.56;;;5.71;86.27
86330;BME280;76985;51.042;13.978;2024-03-23T11:08:33;97901.53;;;5.43;87.39
86330;BME280;76985;51.042;13.978;2024-03-23T11:11:35;97972.75;;;5.70;87.34
86330;BME280;76985;51.042;13.978;2024-03-23T11:14:17;97968.25;;;5.77;87.60
86330;BME280;76985;51.042;13.978;2024-03-23T11:17:10;98008.84;;;5.86;87.82
86330;BME280;76985;51.042;13.978;2024-03-23T11:19:37;98007.59;;;5.64;87.72
86330;BME280;76985;51.042;13.978;2024-03-23T11:22:05;97932.19;;;5.11;87.39
86330;BME280;76985;51.042;13.978;2024-03-23T11:24:32;98004.66;;;5.29;87.04
86330;BME280;76985;51.042;13.978;2024-03-23T11:26:58;98004.88;;;5.27;87.97
86330;BME280;76985;51.042;13.978;2024-03-23T11:29:30;98046.53;;;5.54;86.80
86330;BME280;76985;51.042;13.978;2024-03-23T11:31:56;98041.44;;;5.34;86.64
86330;BME280;76985;51.042;13.978;2024-03-23T11:34:26;98031.75;;;5.34;86.72
86330;BME280;76985;51.042;13.978;2024-03-23T11:37:03;98022.16;;;5.28;86.70
86330;BME280;76985;51.042;13.978;2024-03-23T11:39:29;98029.63;;;5.24;86.35
86330;BME280;76985;51.042;13.978;2024-03-23T11:41:56;98057.50;;;5.37;86.99
86330;BME280;76985;51.042;13.978;2024-03-23T11:44:25;98051.72;;;5.29;87.97
86330;BME280;76985;51.042;13.978;2024-03-23T11:46:52;98058.78;;;5.28;87.37
86330;BME280;76985;51.042;13.978;2024-03-23T11:49:27;98092.53;;;5.36;87.70
86330;BME280;76985;51.042;13.978;2024-03-23T11:51:54;98057.03;;;5.15;88.10
86330;BME280;76985;51.042;13.978;2024-03-23T11:54:22;98074.03;;;5.31;87.59
86330;BME280;76985;51.042;13.978;2024-03-23T11:57:15;98056.53;;;5.32;86.49
86330;BME280;76985;51.042;13.978;2024-03-23T11:59:41;98098.53;;;5.37;87.71
86330;BME280;76985;51.042;13.978;2024-03-23T12:02:11;98093.41;;;5.23;87.81
86330;BME280;76985;51.042;13.978;2024-03-23T12:04:38;98099.75;;;5.34;86.87
86330;BME280;76985;51.042;13.978;2024-03-23T12:07:14;98056.81;;;5.17;87.56
86330;BME280;76985;51.042;13.978;2024-03-23T12:09:41;98100.13;;;5.44;87.73
86330;BME280;76985;51.042;13.978;2024-03-23T12:12:15;98094.72;;;5.39;87.58
86330;BME280;76985;51.042;13.978;2024-03-23T12:14:45;98086.63;;;5.47;87.47
86330;BME280;76985;51.042;13.978;2024-03-23T12:17:13;98086.78;;;5.53;86.53
86330;BME280;76985;51.042;13.978;2024-03-23T12:19:40;98053.72;;;5.58;87.45
86330;BME280;76985;51.042;13.978;2024-03-23T12:22:09;98081.59;;;5.78;86.50
86330;BME280;76985;51.042;13.978;2024-03-23T12:24:38;98068.09;;;5.49;86.41
86330;BME280;76985;51.042;13.978;2024-03-23T12:27:10;98079.59;;;5.41;86.10
86330;BME280;76985;51.042;13.978;2024-03-23T12:29:36;98104.41;;;5.64;86.31
86330;BME280;76985;51.042;13.978;2024-03-23T12:32:05;98073.44;;;5.61;86.18
86330;BME280;76985;51.042;13.978;2024-03-23T12:34:31;98064.47;;;5.75;85.30
86330;BME280;76985;51.042;13.978;2024-03-23T12:36:57;98064.22;;;5.83;86.13
86330;BME280;76985;51.042;13.978;2024-03-23T12:39:24;98055.97;;;5.80;85.58
86330;BME280;76985;51.042;13.978;2024-03-23T12:41:50;98037.09;;;5.78;86.02
86330;BME280;76985;51.042;13.978;2024-03-23T12:44:17;98047.84;;;5.94;87.15
86330;BME280;76985;51.042;13.978;2024-03-23T12:46:44;98016.97;;;5.53;84.86
86330;BME280;76985;51.042;13.978;2024-03-23T12:49:11;98100.25;;;6.13;85.67
86330;BME280;76985;51.042;13.978;2024-03-23T12:51:37;98071.53;;;5.74;84.79
86330;BME280;76985;51.042;13.978;2024-03-23T12:54:03;98079.41;;;5.68;85.22
86330;BME280;76985;51.042;13.978;2024-03-23T12:56:30;98135.25;;;5.93;85.02
86330;BME280;76985;51.042;13.978;2024-03-23T12:58:57;98118.84;;;5.73;84.10
86330;BME280;76985;51.042;13.978;2024-03-23T13:01:23;98118.16;;;5.84;85.51
86330;BME280;76985;51.042;13.978;2024-03-23T13:03:50;98036.81;;;5.61;85.45
86330;BME280;76985;51.042;13.978;2024-03-23T13:06:19;98107.50;;;6.54;84.37
86330;BME280;76985;51.042;13.978;2024-03-23T13:08:45;98079.63;;;6.41;83.63
86330;BME280;76985;51.042;13.978;2024-03-23T13:11:12;98062.97;;;6.72;84.85
86330;BME280;76985;51.042;13.978;2024-03-23T13:13:40;98079.28;;;6.75;82.41
86330;BME280;76985;51.042;13.978;2024-03-23T13:16:08;98055.78;;;6.31;82.29
86330;BME280;76985;51.042;13.978;2024-03-23T13:18:34;98096.22;;;6.54;82.41
86330;BME280;76985;51.042;13.978;2024-03-23T13:21:00;98103.72;;;6.50;82.29
86330;BME280;76985;51.042;13.978;2024-03-23T13:23:26;98103.78;;;6.00;82.60
86330;BME280;76985;51.042;13.978;2024-03-23T13:25:53;98158.28;;;6.10;81.24
86330;BME280;76985;51.042;13.978;2024-03-23T13:28:20;98160.31;;;6.08;82.45
86330;BME280;76985;51.042;13.978;2024-03-23T13:30:53;98157.41;;;5.84;82.27
86330;BME280;76985;51.042;13.978;2024-03-23T13:33:20;98133.94;;;5.71;82.92
86330;BME280;76985;51.042;13.978;2024-03-23T13:35:53;98199.59;;;6.08;82.16
86330;BME280;76985;51.042;13.978;2024-03-23T13:38:20;98210.75;;;6.21;82.55
86330;BME280;76985;51.042;13.978;2024-03-23T13:41:04;98207.72;;;6.25;80.73
86330;BME280;76985;51.042;13.978;2024-03-23T13:43:32;98199.75;;;6.13;81.13
86330;BME280;76985;51.042;13.978;2024-03-23T13:45:59;98189.19;;;6.51;81.92
86330;BME280;76985;51.042;13.978;2024-03-23T13:48:26;98155.44;;;6.36;80.08
86330;BME280;76985;51.042;13.978;2024-03-23T13:51:23;98187.53;;;6.75;80.32
86330;BME280;76985;51.042;13.978;2024-03-23T13:53:49;98169.03;;;6.70;79.03
86330;BME280;76985;51.042;13.978;2024-03-23T13:56:15;98161.59;;;6.67;79.13